createdAt,value
2022-09-14T00:01:33.162Z,99463.31
2022-09-14T00:04:03.202Z,99466.06
2022-09-14T00:06:31.618Z,99479.94
2022-09-14T00:09:02.337Z,99479.63
2022-09-14T00:11:32.806Z,99473.56
2022-09-14T00:14:02.484Z,99454.75
2022-09-14T00:16:33.816Z,99451.50
2022-09-14T00:19:05.627Z,99448.31
2022-09-14T00:21:35.107Z,99446.91
2022-09-14T00:24:05.024Z,99422.66
2022-09-14T00:26:32.970Z,99411.19
2022-09-14T00:29:04.436Z,99388.31
2022-09-14T00:31:33.517Z,99377.66
2022-09-14T00:34:02.117Z,99372.69
2022-09-14T00:36:31.390Z,99363.13
2022-09-14T00:39:01.113Z,99358.84
2022-09-14T00:41:34.202Z,99349.53
2022-09-14T00:44:04.604Z,99335.13
2022-09-14T00:46:36.174Z,99331.66
2022-09-14T00:49:06.572Z,99336.38
2022-09-14T00:51:35.776Z,99337.59
2022-09-14T00:54:06.791Z,99333.47
2022-09-14T00:56:36.564Z,99335.34
2022-09-14T00:59:14.158Z,99337.00
2022-09-14T01:01:42.599Z,99336.22
2022-09-14T01:04:10.475Z,99328.41
2022-09-14T01:06:42.406Z,99336.84
2022-09-14T01:09:21.646Z,99348.16
2022-09-14T01:12:04.521Z,99344.16
2022-09-14T01:14:41.761Z,99340.72
2022-09-14T01:17:17.553Z,99343.34
2022-09-14T01:20:08.257Z,99334.72
2022-09-14T01:22:44.063Z,99341.38
2022-09-14T01:25:27.866Z,99336.53
2022-09-14T01:28:04.838Z,99334.88
2022-09-14T01:30:35.127Z,99322.31
2022-09-14T01:33:10.434Z,99312.47
2022-09-14T01:35:42.766Z,99312.63
2022-09-14T01:38:15.871Z,99309.00
2022-09-14T01:40:46.947Z,99298.38
2022-09-14T01:43:20.135Z,99299.19
2022-09-14T01:45:52.655Z,99296.28
2022-09-14T01:48:23.533Z,99295.88
2022-09-14T01:50:54.758Z,99295.34
2022-09-14T01:53:27.425Z,99296.59
2022-09-14T01:56:03.017Z,99290.63
2022-09-14T01:58:37.987Z,99280.69
2022-09-14T02:01:10.976Z,99282.03
2022-09-14T02:03:44.870Z,99277.88
2022-09-14T02:06:17.632Z,99278.44
2022-09-14T02:08:45.605Z,99262.78
2022-09-14T02:11:13.966Z,99260.03
2022-09-14T02:13:43.264Z,99261.81
2022-09-14T02:16:11.612Z,99269.72
2022-09-14T02:18:40.001Z,99267.69
2022-09-14T02:21:13.956Z,99262.41
2022-09-14T02:23:42.255Z,99253.69
2022-09-14T02:26:10.806Z,99250.81
2022-09-14T02:28:38.782Z,99250.81
2022-09-14T02:31:18.004Z,99250.22
2022-09-14T02:33:53.081Z,99247.47
2022-09-14T02:36:28.898Z,99254.91
2022-09-14T02:39:02.823Z,99252.25
2022-09-14T02:41:42.412Z,99249.78
2022-09-14T02:44:19.645Z,99253.09
2022-09-14T02:46:56.626Z,99242.47
2022-09-14T02:49:30.807Z,99249.00
2022-09-14T02:52:08.208Z,99252.03
2022-09-14T02:54:42.101Z,99248.56
2022-09-14T02:57:10.125Z,99249.13
2022-09-14T02:59:38.167Z,99245.78
2022-09-14T03:02:07.509Z,99248.19
2022-09-14T03:04:35.701Z,99248.84
2022-09-14T03:07:03.905Z,99253.28
2022-09-14T03:09:31.728Z,99256.91
2022-09-14T03:11:59.544Z,99257.72
2022-09-14T03:14:27.458Z,99252.44
2022-09-14T03:16:55.389Z,99243.88
2022-09-14T03:19:24.992Z,99223.13
2022-09-14T03:21:52.721Z,99211.06
2022-09-14T03:24:20.714Z,99200.25
2022-09-14T03:26:52.143Z,99195.97
2022-09-14T03:29:19.892Z,99194.75
2022-09-14T03:31:47.782Z,99186.03
2022-09-14T03:34:15.943Z,99186.16
2022-09-14T03:36:45.306Z,99177.41
2022-09-14T03:39:13.364Z,99162.78
2022-09-14T03:41:41.158Z,99166.91
2022-09-14T03:44:10.835Z,99166.66
2022-09-14T03:46:38.928Z,99163.31
2022-09-14T03:49:06.773Z,99163.19
2022-09-14T03:51:35.141Z,99171.47
2022-09-14T03:54:05.214Z,99174.22
2022-09-14T03:56:33.199Z,99177.97
2022-09-14T03:59:00.962Z,99174.50
2022-09-14T04:01:28.838Z,99171.88
2022-09-14T04:03:56.945Z,99171.88
2022-09-14T04:06:26.057Z,99160.50
2022-09-14T04:08:55.267Z,99163.13
2022-09-14T04:11:25.733Z,99161.22
2022-09-14T04:13:54.349Z,99165.94
2022-09-14T04:16:23.159Z,99157.75
2022-09-14T04:18:51.007Z,99164.53
2022-09-14T04:21:20.809Z,99162.31
2022-09-14T04:26:38.902Z,99163.28
2022-09-14T04:29:06.853Z,99162.47
2022-09-14T04:31:34.744Z,99153.34
2022-09-14T04:34:02.579Z,99145.56
2022-09-14T04:36:31.712Z,99142.81
2022-09-14T04:39:01.473Z,99149.72
2022-09-14T04:41:30.953Z,99147.53
2022-09-14T04:44:00.881Z,99152.34
2022-09-14T04:46:32.346Z,99149.88
2022-09-14T04:49:00.554Z,99153.03
2022-09-14T04:51:30.706Z,99147.66
2022-09-14T04:54:00.341Z,99147.53
2022-09-14T04:56:29.651Z,99150.53
2022-09-14T04:59:01.734Z,99148.19
2022-09-14T05:01:32.101Z,99145.84
2022-09-14T05:04:00.242Z,99148.19
2022-09-14T05:06:29.970Z,99148.19
2022-09-14T05:08:59.125Z,99143.06
2022-09-14T05:11:28.946Z,99142.09
2022-09-14T05:13:57.226Z,99153.59
2022-09-14T05:16:28.967Z,99157.88
2022-09-14T05:18:58.535Z,99155.13
2022-09-14T05:21:26.452Z,99165.66
2022-09-14T05:23:55.957Z,99159.44
2022-09-14T05:26:24.853Z,99167.16
2022-09-14T05:28:54.669Z,99166.19
2022-09-14T05:31:23.901Z,99154.72
2022-09-14T05:33:54.008Z,99155.41
2022-09-14T05:36:22.220Z,99159.13
2022-09-14T05:38:50.514Z,99154.34
2022-09-14T05:41:18.530Z,99150.88
2022-09-14T05:43:46.647Z,99151.13
2022-09-14T05:46:16.730Z,99141.56
2022-09-14T05:48:45.021Z,99136.44
2022-09-14T05:51:16.828Z,99139.06
2022-09-14T05:53:48.722Z,99132.84
2022-09-14T05:56:18.039Z,99123.88
2022-09-14T05:58:47.384Z,99128.16
2022-09-14T06:01:17.582Z,99124.94
2022-09-14T06:03:46.344Z,99119.81
2022-09-14T06:06:18.214Z,99123.75
2022-09-14T06:08:48.013Z,99114.59
2022-09-14T06:11:17.679Z,99110.72
2022-09-14T06:13:47.001Z,99114.59
2022-09-14T06:16:16.815Z,99134.09
2022-09-14T06:18:45.770Z,99137.44
2022-09-14T06:21:19.044Z,99141.19
2022-09-14T06:23:48.525Z,99145.03
2022-09-14T06:26:17.246Z,99156.81
2022-09-14T06:28:45.609Z,99160.56
2022-09-14T06:31:14.327Z,99168.72
2022-09-14T06:33:44.986Z,99167.47
2022-09-14T06:36:16.282Z,99171.34
2022-09-14T06:38:44.445Z,99165.94
2022-09-14T06:41:14.455Z,99162.75
2022-09-14T06:43:43.629Z,99157.50
2022-09-14T06:46:13.725Z,99153.78
2022-09-14T06:48:44.652Z,99158.16
2022-09-14T06:51:16.905Z,99153.75
2022-09-14T06:53:46.665Z,99158.16
2022-09-14T06:56:15.254Z,99163.19
2022-09-14T06:58:43.985Z,99155.41
2022-09-14T07:01:14.354Z,99137.41
2022-09-14T07:03:43.987Z,99141.84
2022-09-14T07:06:17.896Z,99129.47
2022-09-14T07:08:46.331Z,99142.38
2022-09-14T07:11:17.177Z,99145.69
2022-09-14T07:13:47.079Z,99119.94
2022-09-14T07:16:16.281Z,99113.91
2022-09-14T07:18:44.758Z,99109.59
2022-09-14T07:21:20.743Z,99116.09
2022-09-14T07:23:51.089Z,99134.38
2022-09-14T07:26:21.436Z,99149.38
2022-09-14T07:28:52.644Z,99139.94
2022-09-14T07:31:23.006Z,99179.44
2022-09-14T07:33:54.843Z,99175.25
2022-09-14T07:36:25.810Z,99191.75
2022-09-14T07:38:54.443Z,99184.56
2022-09-14T07:41:24.102Z,99192.88
2022-09-14T07:43:53.132Z,99190.91
2022-09-14T07:46:22.477Z,99174.94
2022-09-14T07:48:55.221Z,99174.94
2022-09-14T07:51:25.629Z,99173.03
2022-09-14T07:53:53.622Z,99177.19
2022-09-14T07:56:22.791Z,99191.88
2022-09-14T07:59:07.174Z,99196.41
2022-09-14T08:01:43.922Z,99198.28
2022-09-14T08:04:12.019Z,99201.28
2022-09-14T08:06:42.095Z,99216.34
2022-09-14T08:09:10.237Z,99210.97
2022-09-14T08:11:38.680Z,99215.19
2022-09-14T08:14:11.334Z,99219.31
2022-09-14T08:16:40.388Z,99210.88
2022-09-14T08:19:12.597Z,99232.94
2022-09-14T08:21:46.191Z,99244.16
2022-09-14T08:24:16.430Z,99265.69
2022-09-14T08:26:44.517Z,99268.44
2022-09-14T08:29:13.121Z,99264.13
2022-09-14T08:31:42.872Z,99276.59
2022-09-14T08:34:11.203Z,99268.16
2022-09-14T08:36:42.296Z,99268.16
2022-09-14T08:39:11.884Z,99259.94
2022-09-14T08:41:45.605Z,99259.94
2022-09-14T08:44:19.190Z,99270.59
2022-09-14T08:46:50.221Z,99275.19
2022-09-14T08:49:27.710Z,99282.66
2022-09-14T08:51:57.297Z,99276.06
2022-09-14T08:54:25.730Z,99285.19
2022-09-14T09:08:46.880Z,99260.25
2022-09-14T09:11:20.124Z,99261.78
2022-09-14T09:13:51.806Z,99272.03
2022-09-14T09:16:24.666Z,99276.91
2022-09-14T09:18:58.077Z,99270.44
2022-09-14T09:21:30.617Z,99275.72
2022-09-14T09:24:18.568Z,99273.78
2022-09-14T09:26:46.384Z,99274.78
2022-09-14T09:29:14.357Z,99269.38
2022-09-14T09:32:01.646Z,99275.38
2022-09-14T09:34:52.774Z,99273.75
2022-09-14T09:37:43.919Z,99274.06
2022-09-14T09:40:18.579Z,99257.41
2022-09-14T09:43:13.473Z,99246.84
2022-09-14T09:45:50.028Z,99239.88
2022-09-14T09:48:20.886Z,99212.94
2022-09-14T09:50:50.776Z,99208.03
2022-09-14T09:53:21.953Z,99204.38
2022-09-14T09:55:51.868Z,99198.28
2022-09-14T09:58:28.613Z,99195.22
2022-09-14T10:00:58.321Z,99200.00
2022-09-14T10:03:41.049Z,99218.28
2022-09-14T10:06:11.273Z,99209.19
2022-09-14T10:08:43.588Z,99207.66
2022-09-14T10:11:36.523Z,99219.06
2022-09-14T10:14:05.914Z,99213.78
2022-09-14T10:16:40.270Z,99207.56
2022-09-14T10:19:15.666Z,99199.69
2022-09-14T10:22:17.330Z,99193.56
2022-09-14T10:24:55.255Z,99189.72
2022-09-14T10:27:39.511Z,99177.81
2022-09-14T10:30:13.647Z,99170.50
2022-09-14T10:32:44.715Z,99179.28
2022-09-14T10:35:15.330Z,99180.31
2022-09-14T10:38:02.189Z,99170.09
2022-09-14T10:40:37.144Z,99173.44
2022-09-14T10:43:15.552Z,99165.31
2022-09-14T10:45:50.306Z,99159.16
2022-09-14T10:48:47.710Z,99167.56
2022-09-14T10:51:30.741Z,99163.41
2022-09-14T10:54:05.704Z,99173.41
2022-09-14T10:56:43.420Z,99166.91
2022-09-14T10:59:27.091Z,99164.22
2022-09-14T11:02:14.678Z,99142.91
2022-09-14T11:04:58.949Z,99140.84
2022-09-14T11:07:37.142Z,99137.53
2022-09-14T11:10:18.036Z,99161.91
2022-09-14T11:12:56.867Z,99156.28
2022-09-14T11:15:33.790Z,99152.72
2022-09-14T11:18:17.649Z,99153.25
2022-09-14T11:20:59.503Z,99159.72
2022-09-14T11:23:38.216Z,99159.44
2022-09-14T11:26:13.506Z,99148.84
2022-09-14T11:28:45.469Z,99157.16
2022-09-14T11:31:20.259Z,99142.50
2022-09-14T11:33:55.337Z,99142.81
2022-09-14T11:36:26.583Z,99139.34
2022-09-14T11:38:57.942Z,99141.69
2022-09-14T11:41:31.784Z,99144.81
2022-09-14T11:44:04.887Z,99135.47
2022-09-14T11:46:37.524Z,99134.47
2022-09-14T11:49:15.667Z,99141.28
2022-09-14T11:51:49.859Z,99141.66
2022-09-14T11:54:20.208Z,99148.81
2022-09-14T11:56:49.709Z,99145.19
2022-09-14T11:59:51.537Z,99141.56
2022-09-14T12:02:58.645Z,99132.63
2022-09-14T12:05:34.986Z,99105.47
2022-09-14T12:08:22.369Z,99103.19
2022-09-14T12:11:19.737Z,99089.16
2022-09-14T12:13:48.203Z,99079.38
2022-09-14T12:16:16.124Z,99076.88
2022-09-14T12:18:57.551Z,99089.47
2022-09-14T12:21:27.145Z,99093.75
2022-09-14T12:23:57.748Z,99108.31
2022-09-14T12:26:35.938Z,99107.50
2022-09-14T12:29:27.411Z,99106.84
2022-09-14T12:32:02.748Z,99111.66
2022-09-14T12:34:33.626Z,99123.41
2022-09-14T12:37:31.090Z,99128.91
2022-09-14T12:40:37.245Z,99127.06
2022-09-14T12:43:50.775Z,99136.50
2022-09-14T12:46:48.831Z,99142.63
2022-09-14T12:49:31.718Z,99147.13
2022-09-14T12:52:05.902Z,99150.09
2022-09-14T12:54:50.577Z,99143.78
2022-09-14T12:57:47.006Z,99140.34
2022-09-14T13:00:19.916Z,99134.00
2022-09-14T13:03:11.603Z,99129.53
2022-09-14T13:05:44.788Z,99124.44
2022-09-14T13:08:13.905Z,99112.34
2022-09-14T13:10:47.560Z,99108.53
2022-09-14T13:13:19.422Z,99101.22
2022-09-14T13:15:54.454Z,99097.41
2022-09-14T13:18:34.320Z,99092.63
2022-09-14T13:21:17.564Z,99082.50
2022-09-14T13:23:45.678Z,99078.03
2022-09-14T13:26:18.115Z,99058.97
2022-09-14T13:28:47.515Z,99040.63
2022-09-14T13:31:20.139Z,99041.28
2022-09-14T13:33:51.349Z,99039.16
2022-09-14T13:36:24.470Z,99034.19
2022-09-14T13:38:53.070Z,99032.88
2022-09-14T13:41:23.276Z,99046.31
2022-09-14T13:43:54.201Z,99048.78
2022-09-14T13:46:23.929Z,99034.38
2022-09-14T13:48:53.474Z,99036.00
2022-09-14T13:51:26.972Z,99045.47
2022-09-14T13:53:56.824Z,99050.41
2022-09-14T13:56:31.313Z,99045.28
2022-09-14T13:59:21.708Z,99043.28
2022-09-14T14:01:57.143Z,99048.91
2022-09-14T14:04:30.230Z,99063.50
2022-09-14T14:07:16.162Z,99066.78
2022-09-14T14:09:47.622Z,99048.38
2022-09-14T14:12:25.206Z,99062.47
2022-09-14T14:14:58.172Z,99059.81
2022-09-14T14:17:34.450Z,99089.94
2022-09-14T14:20:32.551Z,99088.94
2022-09-14T14:23:16.483Z,99105.59
2022-09-14T14:25:47.550Z,99089.00
2022-09-14T14:28:19.222Z,99090.34
2022-09-14T14:30:47.730Z,99080.41
2022-09-14T14:33:19.136Z,99073.13
2022-09-14T14:35:49.380Z,99071.00
2022-09-14T14:38:18.721Z,99062.06
2022-09-14T14:40:47.903Z,99050.63
2022-09-14T14:43:20.085Z,99050.63
2022-09-14T14:45:49.298Z,99056.13
2022-09-14T14:48:18.285Z,99054.94
2022-09-14T14:50:48.056Z,99051.81
2022-09-14T14:53:15.863Z,99048.19
2022-09-14T14:55:45.103Z,99039.25
2022-09-14T14:58:17.836Z,99039.25
2022-09-14T15:00:47.298Z,99048.34
2022-09-14T15:03:15.815Z,99056.75
2022-09-14T15:05:44.969Z,99051.16
2022-09-14T15:08:14.155Z,99058.59
2022-09-14T15:10:43.302Z,99043.88
2022-09-14T15:13:14.038Z,99037.41
2022-09-14T15:15:43.399Z,99027.16
2022-09-14T15:18:11.526Z,99031.31
2022-09-14T15:20:39.487Z,99024.38
2022-09-14T15:23:08.217Z,99005.69
2022-09-14T15:25:36.392Z,99019.22
2022-09-14T15:28:04.477Z,99025.19
2022-09-14T15:30:34.102Z,99028.84
2022-09-14T15:33:02.381Z,99026.69
2022-09-14T15:35:30.292Z,99030.31
2022-09-14T15:37:58.214Z,99012.63
2022-09-14T15:40:26.630Z,99024.88
2022-09-14T15:42:55.237Z,99018.41
2022-09-14T15:45:23.673Z,99025.34
2022-09-14T15:47:53.037Z,99017.59
2022-09-14T15:50:21.330Z,99028.50
2022-09-14T15:52:49.957Z,99021.38
2022-09-14T15:55:18.257Z,99025.00
2022-09-14T15:57:46.117Z,99032.31
2022-09-14T16:00:16.306Z,99031.00
2022-09-14T16:02:48.984Z,99030.16
2022-09-14T16:05:19.505Z,99030.50
2022-09-14T16:07:47.749Z,99040.09
2022-09-14T16:10:15.853Z,99056.75
2022-09-14T16:12:44.009Z,99055.63
2022-09-14T16:15:12.783Z,99060.91
2022-09-14T16:17:40.532Z,99060.41
2022-09-14T16:20:10.463Z,99073.09
2022-09-14T16:22:39.920Z,99072.97
2022-09-14T16:25:08.146Z,99074.91
2022-09-14T16:27:36.159Z,99071.25
2022-09-14T16:30:04.381Z,99077.22
2022-09-14T16:32:32.240Z,99081.53
2022-09-14T16:35:01.334Z,99081.84
2022-09-14T16:37:30.644Z,99087.13
2022-09-14T16:40:00.592Z,99082.22
2022-09-14T16:42:28.645Z,99080.88
2022-09-14T16:44:56.577Z,99085.47
2022-09-14T16:47:25.734Z,99079.97
2022-09-14T16:49:53.683Z,99085.75
2022-09-14T16:52:22.449Z,99093.81
2022-09-14T16:54:53.014Z,99100.56
2022-09-14T16:57:26.741Z,99104.69
2022-09-14T16:59:54.553Z,99111.28
2022-09-14T17:02:22.761Z,99096.63
2022-09-14T17:04:50.794Z,99089.50
2022-09-14T17:07:18.607Z,99100.25
2022-09-14T17:09:46.468Z,99096.94
2022-09-14T17:12:14.396Z,99097.09
2022-09-14T17:14:43.660Z,99101.72
2022-09-14T17:17:11.451Z,99097.78
2022-09-14T17:19:43.400Z,99106.03
2022-09-14T17:22:11.699Z,99103.41
2022-09-14T17:24:39.963Z,99095.63
2022-09-14T17:27:08.454Z,99091.00
2022-09-14T17:29:39.448Z,99092.84
2022-09-14T17:32:14.073Z,99084.09
2022-09-14T17:34:42.664Z,99091.34
2022-09-14T17:37:10.430Z,99099.25
2022-09-14T17:39:38.826Z,99095.97
2022-09-14T17:42:07.442Z,99100.94
2022-09-14T17:44:35.832Z,99125.66
2022-09-14T17:47:04.252Z,99131.22
2022-09-14T17:49:33.481Z,99110.97
2022-09-14T17:52:02.001Z,99113.97
2022-09-14T17:54:29.964Z,99107.69
2022-09-14T17:56:57.817Z,99108.94
2022-09-14T17:59:25.826Z,99114.34
2022-09-14T18:01:53.726Z,99107.38
2022-09-14T18:04:22.861Z,99104.66
2022-09-14T18:06:52.053Z,99102.84
2022-09-14T18:09:24.045Z,99097.47
2022-09-14T18:11:52.599Z,99098.19
2022-09-14T18:14:20.370Z,99095.56
2022-09-14T18:16:48.393Z,99091.81
2022-09-14T18:19:17.157Z,99078.94
2022-09-14T18:21:50.231Z,99070.09
2022-09-14T18:24:21.796Z,99054.94
2022-09-14T18:26:49.888Z,99054.69
2022-09-14T18:29:21.015Z,99047.94
2022-09-14T18:31:49.020Z,99041.75
2022-09-14T18:34:16.937Z,99059.34
2022-09-14T18:36:44.864Z,99072.63
2022-09-14T18:39:13.447Z,99081.22
2022-09-14T18:41:43.592Z,99095.34
2022-09-14T18:44:11.382Z,99118.22
2022-09-14T18:46:39.134Z,99140.25
2022-09-14T18:49:07.224Z,99137.88
2022-09-14T18:51:35.102Z,99136.66
2022-09-14T18:54:05.167Z,99146.03
2022-09-14T18:56:34.005Z,99157.44
2022-09-14T18:59:04.570Z,99152.03
2022-09-14T19:01:33.618Z,99146.63
2022-09-14T19:04:03.641Z,99137.06
2022-09-14T19:06:31.749Z,99128.63
2022-09-14T19:08:59.555Z,99120.91
2022-09-14T19:11:30.213Z,99110.09
2022-09-14T19:14:01.249Z,99109.13
2022-09-14T19:16:31.377Z,99106.50
2022-09-14T19:18:59.876Z,99103.19
2022-09-14T19:21:29.333Z,99103.50
2022-09-14T19:24:00.341Z,99100.88
2022-09-14T19:26:35.660Z,99098.06
2022-09-14T19:29:05.097Z,99091.31
2022-09-14T19:31:35.238Z,99091.31
2022-09-14T19:34:05.458Z,99083.97
2022-09-14T19:36:34.733Z,99093.66
2022-09-14T19:39:04.688Z,99091.72
2022-09-14T19:41:34.010Z,99093.09
2022-09-14T19:44:02.652Z,99096.69
2022-09-14T19:46:31.196Z,99096.41
2022-09-14T19:49:00.610Z,99098.22
2022-09-14T19:51:30.252Z,99102.78
2022-09-14T19:54:00.439Z,99097.94
2022-09-14T19:56:32.012Z,99097.66
2022-09-14T19:59:02.069Z,99095.19
2022-09-14T20:01:31.884Z,99097.94
2022-09-14T20:04:02.020Z,99091.59
2022-09-14T20:06:32.480Z,99093.41
2022-09-14T20:09:03.305Z,99089.94
2022-09-14T20:11:33.055Z,99105.44
2022-09-14T20:16:34.546Z,99116.22
2022-09-14T20:19:07.178Z,99103.91
2022-09-14T20:21:36.377Z,99110.97
2022-09-14T20:24:22.559Z,99125.53
2022-09-14T20:26:51.970Z,99143.94
2022-09-14T20:29:22.911Z,99141.44
2022-09-14T20:31:51.715Z,99141.16
2022-09-14T20:34:21.955Z,99149.34
2022-09-14T20:37:04.273Z,99138.81
2022-09-14T20:39:35.860Z,99139.22
2022-09-14T20:42:04.461Z,99133.41
2022-09-14T20:44:32.269Z,99135.75
2022-09-14T20:47:00.581Z,99125.50
2022-09-14T20:49:29.762Z,99133.41
2022-09-14T20:51:58.878Z,99135.19
2022-09-14T20:54:27.014Z,99134.66
2022-09-14T20:56:54.909Z,99125.66
2022-09-14T20:59:23.223Z,99136.19
2022-09-14T21:01:52.442Z,99127.03
2022-09-14T21:04:22.211Z,99120.66
2022-09-14T21:06:53.495Z,99117.63
2022-09-14T21:09:24.288Z,99106.25
2022-09-14T21:11:52.607Z,99095.72
2022-09-14T21:14:21.318Z,99096.03
2022-09-14T21:16:52.972Z,99083.81
2022-09-14T21:19:23.227Z,99082.59
2022-09-14T21:21:52.673Z,99079.28
2022-09-14T21:24:22.863Z,99081.50
2022-09-14T21:26:51.641Z,99084.53
2022-09-14T21:29:23.246Z,99086.22
2022-09-14T21:31:52.202Z,99095.63
2022-09-14T21:34:20.495Z,99111.00
2022-09-14T21:36:50.728Z,99095.59
2022-09-14T21:39:22.843Z,99090.75
2022-09-14T21:41:55.938Z,99093.28
2022-09-14T21:44:29.569Z,99100.16
2022-09-14T21:46:57.439Z,99094.91
2022-09-14T21:49:26.162Z,99103.63
2022-09-14T21:51:53.966Z,99096.59
2022-09-14T21:54:23.535Z,99102.00
2022-09-14T21:56:51.561Z,99100.56
2022-09-14T21:59:20.899Z,99100.75
2022-09-14T22:01:49.595Z,99113.31
2022-09-14T22:04:19.876Z,99099.78
2022-09-14T22:06:48.201Z,99098.66
2022-09-14T22:09:17.896Z,99100.31
2022-09-14T22:11:47.450Z,99097.56
2022-09-14T22:14:18.374Z,99092.00
2022-09-14T22:16:47.274Z,99095.47
2022-09-14T22:19:18.922Z,99090.06
2022-09-14T22:21:47.276Z,99076.06
2022-09-14T22:24:20.069Z,99078.88
2022-09-14T22:26:50.189Z,99092.00
2022-09-14T22:29:19.313Z,99090.63
2022-09-14T22:31:47.370Z,99100.19
2022-09-14T22:34:16.234Z,99095.06
2022-09-14T22:36:44.964Z,99102.38
2022-09-14T22:39:12.990Z,99102.53
2022-09-14T22:41:41.047Z,99114.13
2022-09-14T22:44:12.495Z,99132.53
2022-09-14T22:46:40.558Z,99126.88
2022-09-14T22:49:08.878Z,99126.03
2022-09-14T22:51:36.997Z,99130.06
2022-09-14T22:54:05.475Z,99127.28
2022-09-14T22:56:37.994Z,99123.84
2022-09-14T22:59:07.498Z,99128.56
2022-09-14T23:01:38.548Z,99121.63
2022-09-14T23:04:08.311Z,99118.31
2022-09-14T23:06:38.351Z,99112.63
2022-09-14T23:09:07.445Z,99109.47
2022-09-14T23:11:35.933Z,99115.69
2022-09-14T23:14:04.088Z,99119.16
2022-09-14T23:16:32.443Z,99117.47
2022-09-14T23:19:03.326Z,99121.91
2022-09-14T23:21:32.615Z,99118.16
2022-09-14T23:24:03.298Z,99119.81
2022-09-14T23:26:32.336Z,99109.31
2022-09-14T23:29:02.074Z,99110.13
2022-09-14T23:31:32.079Z,99100.75
2022-09-14T23:34:03.375Z,99103.22
2022-09-14T23:36:32.018Z,99112.75
2022-09-14T23:38:59.781Z,99105.59
2022-09-14T23:41:29.199Z,99097.81
2022-09-14T23:43:57.240Z,99097.00
2022-09-14T23:46:25.685Z,99102.38
2022-09-14T23:48:53.568Z,99094.66
2022-09-14T23:51:23.101Z,99092.97
2022-09-14T23:53:51.052Z,99093.09
2022-09-14T23:56:18.882Z,99090.75
2022-09-14T23:58:47.305Z,99094.09
